sensor_id;sensor_type;location;lat;lon;timestamp;temperature;humidity
52555;DHT22;38455;52.710;6.502;2023-02-22T00:00:35;8.70;99.90
52555;DHT22;38455;52.710;6.502;2023-02-22T00:03:23;8.70;99.90
52555;DHT22;38455;52.710;6.502;2023-02-22T00:05:54;8.70;99.90
52555;DHT22;38455;52.710;6.502;2023-02-22T00:08:21;8.60;99.90
52555;DHT22;38455;52.710;6.502;2023-02-22T00:10:48;8.70;99.90
52555;DHT22;38455;52.710;6.502;2023-02-22T00:13:17;8.70;99.90
52555;DHT22;38455;52.710;6.502;2023-02-22T00:15:44;8.70;99.90
52555;DHT22;38455;52.710;6.502;2023-02-22T00:18:12;8.70;99.90
52555;DHT22;38455;52.710;6.502;2023-02-22T00:20:39;8.60;99.90
52555;DHT22;38455;52.710;6.502;2023-02-22T00:23:07;8.70;99.90
52555;DHT22;38455;52.710;6.502;2023-02-22T00:25:35;8.70;99.90
52555;DHT22;38455;52.710;6.502;2023-02-22T00:28:01;8.70;99.90
52555;DHT22;38455;52.710;6.502;2023-02-22T00:30:29;8.70;99.90
52555;DHT22;38455;52.710;6.502;2023-02-22T00:32:57;8.60;99.90
52555;DHT22;38455;52.710;6.502;2023-02-22T00:35:25;8.70;99.90
52555;DHT22;38455;52.710;6.502;2023-02-22T00:37:57;8.60;99.90
52555;DHT22;38455;52.710;6.502;2023-02-22T00:40:28;8.60;99.90
52555;DHT22;38455;52.710;6.502;2023-02-22T00:42:56;8.60;99.90
52555;DHT22;38455;52.710;6.502;2023-02-22T00:45:24;8.60;99.90
52555;DHT22;38455;52.710;6.502;2023-02-22T00:47:50;8.60;99.90
52555;DHT22;38455;52.710;6.502;2023-02-22T00:50:18;8.60;99.90
52555;DHT22;38455;52.710;6.502;2023-02-22T00:52:44;8.60;99.90
52555;DHT22;38455;52.710;6.502;2023-02-22T00:55:22;8.60;99.90
52555;DHT22;38455;52.710;6.502;2023-02-22T00:57:48;8.60;99.90
52555;DHT22;38455;52.710;6.502;2023-02-22T01:00:20;8.60;99.90
52555;DHT22;38455;52.710;6.502;2023-02-22T01:02:46;8.60;99.90
52555;DHT22;38455;52.710;6.502;2023-02-22T01:05:16;8.60;99.90
52555;DHT22;38455;52.710;6.502;2023-02-22T01:07:42;8.60;99.90
52555;DHT22;38455;52.710;6.502;2023-02-22T01:10:09;8.60;99.90
52555;DHT22;38455;52.710;6.502;2023-02-22T01:12:35;8.60;99.90
52555;DHT22;38455;52.710;6.502;2023-02-22T01:15:06;8.60;99.90
52555;DHT22;38455;52.710;6.502;2023-02-22T01:17:36;8.60;99.90
52555;DHT22;38455;52.710;6.502;2023-02-22T01:20:03;8.60;99.90
52555;DHT22;38455;52.710;6.502;2023-02-22T01:22:34;8.60;99.90
52555;DHT22;38455;52.710;6.502;2023-02-22T01:25:00;8.60;99.90
52555;DHT22;38455;52.710;6.502;2023-02-22T01:27:26;8.60;99.90
52555;DHT22;38455;52.710;6.502;2023-02-22T01:29:52;8.60;99.90
52555;DHT22;38455;52.710;6.502;2023-02-22T01:32:18;8.60;99.90
52555;DHT22;38455;52.710;6.502;2023-02-22T01:34:43;8.60;99.90
52555;DHT22;38455;52.710;6.502;2023-02-22T01:37:09;8.60;99.90
52555;DHT22;38455;52.710;6.502;2023-02-22T01:39:34;8.50;99.90
52555;DHT22;38455;52.710;6.502;2023-02-22T01:42:00;8.60;99.90
52555;DHT22;38455;52.710;6.502;2023-02-22T01:44:35;8.60;99.90
52555;DHT22;38455;52.710;6.502;2023-02-22T01:47:02;8.60;99.90
52555;DHT22;38455;52.710;6.502;2023-02-22T01:49:36;8.60;99.90
52555;DHT22;38455;52.710;6.502;2023-02-22T01:52:05;8.50;99.90
52555;DHT22;38455;52.710;6.502;2023-02-22T01:54:46;8.50;99.90
52555;DHT22;38455;52.710;6.502;2023-02-22T01:57:28;8.60;99.90
52555;DHT22;38455;52.710;6.502;2023-02-22T02:00:20;8.50;99.90
52555;DHT22;38455;52.710;6.502;2023-02-22T02:03:03;8.50;99.90
52555;DHT22;38455;52.710;6.502;2023-02-22T02:05:31;8.50;99.90
52555;DHT22;38455;52.710;6.502;2023-02-22T02:08:07;8.50;99.90
52555;DHT22;38455;52.710;6.502;2023-02-22T02:10:38;8.50;99.90
52555;DHT22;38455;52.710;6.502;2023-02-22T02:13:04;8.50;99.90
52555;DHT22;38455;52.710;6.502;2023-02-22T02:15:32;8.50;99.90
52555;DHT22;38455;52.710;6.502;2023-02-22T02:18:01;8.50;99.90
52555;DHT22;38455;52.710;6.502;2023-02-22T02:20:40;8.50;99.90
52555;DHT22;38455;52.710;6.502;2023-02-22T02:31:52;8.50;99.90
52555;DHT22;38455;52.710;6.502;2023-02-22T02:37:20;8.50;99.90
52555;DHT22;38455;52.710;6.502;2023-02-22T02:45:46;8.50;99.90
52555;DHT22;38455;52.710;6.502;2023-02-22T02:48:14;8.50;99.90
52555;DHT22;38455;52.710;6.502;2023-02-22T02:50:47;8.50;99.90
52555;DHT22;38455;52.710;6.502;2023-02-22T02:53:19;8.50;99.90
52555;DHT22;38455;52.710;6.502;2023-02-22T02:55:46;8.40;99.90
52555;DHT22;38455;52.710;6.502;2023-02-22T02:58:18;8.40;99.90
52555;DHT22;38455;52.710;6.502;2023-02-22T03:00:45;8.40;99.90
52555;DHT22;38455;52.710;6.502;2023-02-22T03:11:43;8.40;99.90
52555;DHT22;38455;52.710;6.502;2023-02-22T03:14:17;8.40;99.90
52555;DHT22;38455;52.710;6.502;2023-02-22T03:19:44;8.30;99.90
52555;DHT22;38455;52.710;6.502;2023-02-22T03:22:30;8.40;99.90
52555;DHT22;38455;52.710;6.502;2023-02-22T03:25:13;8.40;99.90
52555;DHT22;38455;52.710;6.502;2023-02-22T03:27:48;8.30;99.90
52555;DHT22;38455;52.710;6.502;2023-02-22T03:32:48;8.30;99.90
52555;DHT22;38455;52.710;6.502;2023-02-22T03:35:21;8.40;99.90
52555;DHT22;38455;52.710;6.502;2023-02-22T03:37:51;8.30;99.90
52555;DHT22;38455;52.710;6.502;2023-02-22T03:40:25;8.30;99.90
52555;DHT22;38455;52.710;6.502;2023-02-22T03:42:57;8.30;99.90
52555;DHT22;38455;52.710;6.502;2023-02-22T03:45:24;8.30;99.90
52555;DHT22;38455;52.710;6.502;2023-02-22T03:47:59;8.30;99.90
52555;DHT22;38455;52.710;6.502;2023-02-22T03:50:28;8.20;99.90
52555;DHT22;38455;52.710;6.502;2023-02-22T03:52:57;8.20;99.90
52555;DHT22;38455;52.710;6.502;2023-02-22T03:55:23;8.20;99.90
52555;DHT22;38455;52.710;6.502;2023-02-22T03:57:51;8.20;99.90
52555;DHT22;38455;52.710;6.502;2023-02-22T04:00:23;8.20;99.90
52555;DHT22;38455;52.710;6.502;2023-02-22T04:02:50;8.20;99.90
52555;DHT22;38455;52.710;6.502;2023-02-22T04:05:16;8.20;99.90
52555;DHT22;38455;52.710;6.502;2023-02-22T04:07:42;8.10;99.90
52555;DHT22;38455;52.710;6.502;2023-02-22T04:10:10;8.20;99.90
52555;DHT22;38455;52.710;6.502;2023-02-22T04:12:36;8.10;99.90
52555;DHT22;38455;52.710;6.502;2023-02-22T04:15:04;8.10;99.90
52555;DHT22;38455;52.710;6.502;2023-02-22T04:17:30;8.10;99.90
52555;DHT22;38455;52.710;6.502;2023-02-22T04:19:56;8.00;99.90
52555;DHT22;38455;52.710;6.502;2023-02-22T04:22:21;8.00;99.90
52555;DHT22;38455;52.710;6.502;2023-02-22T04:24:47;8.00;99.90
52555;DHT22;38455;52.710;6.502;2023-02-22T04:27:14;8.00;99.90
52555;DHT22;38455;52.710;6.502;2023-02-22T04:29:39;8.00;99.90
52555;DHT22;38455;52.710;6.502;2023-02-22T04:32:05;8.00;99.90
52555;DHT22;38455;52.710;6.502;2023-02-22T04:34:31;8.00;99.90
52555;DHT22;38455;52.710;6.502;2023-02-22T04:36:57;8.00;99.90
52555;DHT22;38455;52.710;6.502;2023-02-22T04:39:22;8.00;99.90
52555;DHT22;38455;52.710;6.502;2023-02-22T04:41:48;7.90;99.90
52555;DHT22;38455;52.710;6.502;2023-02-22T04:44:14;8.00;99.90
52555;DHT22;38455;52.710;6.502;2023-02-22T04:46:39;8.00;99.90
52555;DHT22;38455;52.710;6.502;2023-02-22T04:49:05;7.90;99.90
52555;DHT22;38455;52.710;6.502;2023-02-22T04:51:31;7.90;99.90
52555;DHT22;38455;52.710;6.502;2023-02-22T04:53:56;7.90;99.90
52555;DHT22;38455;52.710;6.502;2023-02-22T04:56:22;7.90;99.90
52555;DHT22;38455;52.710;6.502;2023-02-22T04:58:48;7.90;99.90
52555;DHT22;38455;52.710;6.502;2023-02-22T05:01:14;7.90;99.90
52555;DHT22;38455;52.710;6.502;2023-02-22T05:03:41;7.80;99.90
52555;DHT22;38455;52.710;6.502;2023-02-22T05:06:07;7.80;99.90
52555;DHT22;38455;52.710;6.502;2023-02-22T05:08:33;7.90;99.90
52555;DHT22;38455;52.710;6.502;2023-02-22T05:10:58;7.90;99.90
52555;DHT22;38455;52.710;6.502;2023-02-22T05:13:24;7.80;99.90
52555;DHT22;38455;52.710;6.502;2023-02-22T05:15:50;7.80;99.90
52555;DHT22;38455;52.710;6.502;2023-02-22T05:18:16;7.80;99.90
52555;DHT22;38455;52.710;6.502;2023-02-22T05:20:42;7.80;99.90
52555;DHT22;38455;52.710;6.502;2023-02-22T05:23:07;7.80;99.90
52555;DHT22;38455;52.710;6.502;2023-02-22T05:25:33;7.70;99.90
52555;DHT22;38455;52.710;6.502;2023-02-22T05:28:06;7.70;99.90
52555;DHT22;38455;52.710;6.502;2023-02-22T05:30:34;7.60;99.90
52555;DHT22;38455;52.710;6.502;2023-02-22T05:33:00;7.60;99.90
52555;DHT22;38455;52.710;6.502;2023-02-22T05:35:27;7.60;99.90
52555;DHT22;38455;52.710;6.502;2023-02-22T05:37:54;7.60;99.90
52555;DHT22;38455;52.710;6.502;2023-02-22T05:40:22;7.50;99.90
52555;DHT22;38455;52.710;6.502;2023-02-22T05:42:49;7.50;99.90
52555;DHT22;38455;52.710;6.502;2023-02-22T05:45:16;7.50;99.90
52555;DHT22;38455;52.710;6.502;2023-02-22T05:47:42;7.50;99.90
52555;DHT22;38455;52.710;6.502;2023-02-22T05:50:09;7.40;99.90
52555;DHT22;38455;52.710;6.502;2023-02-22T05:52:35;7.40;99.90
52555;DHT22;38455;52.710;6.502;2023-02-22T05:55:00;7.40;99.90
52555;DHT22;38455;52.710;6.502;2023-02-22T05:57:26;7.30;99.90
52555;DHT22;38455;52.710;6.502;2023-02-22T05:59:52;7.30;99.90
52555;DHT22;38455;52.710;6.502;2023-02-22T06:02:18;7.30;99.90
52555;DHT22;38455;52.710;6.502;2023-02-22T06:04:44;7.30;99.90
52555;DHT22;38455;52.710;6.502;2023-02-22T06:07:10;7.30;99.90
52555;DHT22;38455;52.710;6.502;2023-02-22T06:09:36;7.20;99.90
52555;DHT22;38455;52.710;6.502;2023-02-22T06:12:02;7.20;99.90
52555;DHT22;38455;52.710;6.502;2023-02-22T06:14:28;7.10;99.90
52555;DHT22;38455;52.710;6.502;2023-02-22T06:16:54;7.10;99.90
52555;DHT22;38455;52.710;6.502;2023-02-22T06:19:20;7.10;99.90
52555;DHT22;38455;52.710;6.502;2023-02-22T06:21:53;7.10;99.90
52555;DHT22;38455;52.710;6.502;2023-02-22T06:24:20;7.10;99.90
52555;DHT22;38455;52.710;6.502;2023-02-22T06:26:45;7.10;99.90
52555;DHT22;38455;52.710;6.502;2023-02-22T06:29:11;7.00;99.90
52555;DHT22;38455;52.710;6.502;2023-02-22T06:31:37;7.00;99.90
52555;DHT22;38455;52.710;6.502;2023-02-22T06:34:03;7.00;99.90
52555;DHT22;38455;52.710;6.502;2023-02-22T06:36:28;7.00;99.90
52555;DHT22;38455;52.710;6.502;2023-02-22T06:38:56;7.00;99.90
52555;DHT22;38455;52.710;6.502;2023-02-22T06:41:21;7.00;99.90
52555;DHT22;38455;52.710;6.502;2023-02-22T06:43:47;7.00;99.90
52555;DHT22;38455;52.710;6.502;2023-02-22T06:46:13;7.00;99.90
52555;DHT22;38455;52.710;6.502;2023-02-22T06:48:39;7.00;99.90
52555;DHT22;38455;52.710;6.502;2023-02-22T06:51:07;6.90;99.90
52555;DHT22;38455;52.710;6.502;2023-02-22T06:53:35;6.90;99.90
52555;DHT22;38455;52.710;6.502;2023-02-22T06:56:01;6.90;99.90
52555;DHT22;38455;52.710;6.502;2023-02-22T06:58:27;6.90;99.90
52555;DHT22;38455;52.710;6.502;2023-02-22T07:00:53;6.90;99.90
52555;DHT22;38455;52.710;6.502;2023-02-22T07:03:19;7.00;99.90
52555;DHT22;38455;52.710;6.502;2023-02-22T07:05:45;7.00;99.90
52555;DHT22;38455;52.710;6.502;2023-02-22T07:08:11;7.00;99.90
52555;DHT22;38455;52.710;6.502;2023-02-22T07:10:38;7.00;99.90
52555;DHT22;38455;52.710;6.502;2023-02-22T07:13:05;7.10;99.90
52555;DHT22;38455;52.710;6.502;2023-02-22T07:15:33;7.00;99.90
52555;DHT22;38455;52.710;6.502;2023-02-22T07:17:59;7.10;99.90
52555;DHT22;38455;52.710;6.502;2023-02-22T07:20:27;7.10;99.90
52555;DHT22;38455;52.710;6.502;2023-02-22T07:22:52;7.10;99.90
52555;DHT22;38455;52.710;6.502;2023-02-22T07:25:19;7.10;99.90
52555;DHT22;38455;52.710;6.502;2023-02-22T07:27:46;7.20;99.90
52555;DHT22;38455;52.710;6.502;2023-02-22T07:32:54;7.30;99.90
52555;DHT22;38455;52.710;6.502;2023-02-22T07:35:28;7.30;99.90
52555;DHT22;38455;52.710;6.502;2023-02-22T07:37:54;7.20;99.90
52555;DHT22;38455;52.710;6.502;2023-02-22T07:40:21;7.20;99.90
52555;DHT22;38455;52.710;6.502;2023-02-22T07:43:02;7.30;99.90
52555;DHT22;38455;52.710;6.502;2023-02-22T07:45:30;7.30;99.90
52555;DHT22;38455;52.710;6.502;2023-02-22T07:47:57;7.40;99.90
52555;DHT22;38455;52.710;6.502;2023-02-22T07:50:24;7.30;99.90
52555;DHT22;38455;52.710;6.502;2023-02-22T07:52:53;7.30;99.90
52555;DHT22;38455;52.710;6.502;2023-02-22T07:55:21;7.30;99.90
52555;DHT22;38455;52.710;6.502;2023-02-22T07:57:52;7.40;99.90
52555;DHT22;38455;52.710;6.502;2023-02-22T08:00:25;7.30;99.90
52555;DHT22;38455;52.710;6.502;2023-02-22T08:02:51;7.40;99.90
52555;DHT22;38455;52.710;6.502;2023-02-22T08:05:17;7.50;99.90
52555;DHT22;38455;52.710;6.502;2023-02-22T08:07:43;7.50;99.90
52555;DHT22;38455;52.710;6.502;2023-02-22T08:10:10;7.50;99.90
52555;DHT22;38455;52.710;6.502;2023-02-22T08:12:37;7.50;99.90
52555;DHT22;38455;52.710;6.502;2023-02-22T08:15:08;7.40;99.90
52555;DHT22;38455;52.710;6.502;2023-02-22T08:17:34;7.60;99.90
52555;DHT22;38455;52.710;6.502;2023-02-22T08:20:00;7.40;99.90
52555;DHT22;38455;52.710;6.502;2023-02-22T08:22:25;7.50;99.90
52555;DHT22;38455;52.710;6.502;2023-02-22T08:24:53;7.40;99.90
52555;DHT22;38455;52.710;6.502;2023-02-22T08:27:24;7.50;99.90
52555;DHT22;38455;52.710;6.502;2023-02-22T08:29:50;7.50;99.90
52555;DHT22;38455;52.710;6.502;2023-02-22T08:32:16;7.50;99.90
52555;DHT22;38455;52.710;6.502;2023-02-22T08:34:42;7.50;99.90
52555;DHT22;38455;52.710;6.502;2023-02-22T08:37:08;7.50;99.90
52555;DHT22;38455;52.710;6.502;2023-02-22T08:39:33;7.40;99.90
52555;DHT22;38455;52.710;6.502;2023-02-22T08:41:59;7.40;99.90
52555;DHT22;38455;52.710;6.502;2023-02-22T08:44:25;7.40;99.90
52555;DHT22;38455;52.710;6.502;2023-02-22T08:46:50;7.50;99.90
52555;DHT22;38455;52.710;6.502;2023-02-22T08:49:16;7.50;99.90
52555;DHT22;38455;52.710;6.502;2023-02-22T08:51:42;7.50;99.90
52555;DHT22;38455;52.710;6.502;2023-02-22T08:54:08;7.50;99.90
52555;DHT22;38455;52.710;6.502;2023-02-22T08:56:33;7.50;99.90
52555;DHT22;38455;52.710;6.502;2023-02-22T08:58:59;7.50;99.90
52555;DHT22;38455;52.710;6.502;2023-02-22T09:01:25;7.50;99.90
52555;DHT22;38455;52.710;6.502;2023-02-22T09:03:51;7.40;99.90
52555;DHT22;38455;52.710;6.502;2023-02-22T09:06:17;7.50;99.90
52555;DHT22;38455;52.710;6.502;2023-02-22T09:08:43;7.50;99.90
52555;DHT22;38455;52.710;6.502;2023-02-22T09:11:09;7.50;99.90
52555;DHT22;38455;52.710;6.502;2023-02-22T09:13:34;7.60;99.90
52555;DHT22;38455;52.710;6.502;2023-02-22T09:16:00;7.70;99.90
52555;DHT22;38455;52.710;6.502;2023-02-22T09:18:27;7.70;99.90
52555;DHT22;38455;52.710;6.502;2023-02-22T09:20:53;7.70;99.90
52555;DHT22;38455;52.710;6.502;2023-02-22T09:23:19;7.70;99.90
52555;DHT22;38455;52.710;6.502;2023-02-22T09:25:46;7.70;99.90
52555;DHT22;38455;52.710;6.502;2023-02-22T09:28:12;7.70;99.90
52555;DHT22;38455;52.710;6.502;2023-02-22T09:30:38;7.70;99.90
52555;DHT22;38455;52.710;6.502;2023-02-22T09:33:10;7.80;99.90
52555;DHT22;38455;52.710;6.502;2023-02-22T09:35:37;7.90;99.90
52555;DHT22;38455;52.710;6.502;2023-02-22T09:38:07;7.90;99.90
52555;DHT22;38455;52.710;6.502;2023-02-22T09:40:37;7.90;99.90
52555;DHT22;38455;52.710;6.502;2023-02-22T09:48:32;7.90;99.90
52555;DHT22;38455;52.710;6.502;2023-02-22T09:51:01;7.90;99.90
52555;DHT22;38455;52.710;6.502;2023-02-22T09:53:36;7.90;99.90
52555;DHT22;38455;52.710;6.502;2023-02-22T09:56:11;8.10;99.90
52555;DHT22;38455;52.710;6.502;2023-02-22T09:58:44;8.10;99.90
52555;DHT22;38455;52.710;6.502;2023-02-22T10:01:32;8.20;99.90
52555;DHT22;38455;52.710;6.502;2023-02-22T10:09:34;8.20;99.90
52555;DHT22;38455;52.710;6.502;2023-02-22T10:15:01;8.20;99.90
52555;DHT22;38455;52.710;6.502;2023-02-22T10:17:41;8.20;99.90
52555;DHT22;38455;52.710;6.502;2023-02-22T10:25:32;8.10;99.90
52555;DHT22;38455;52.710;6.502;2023-02-22T10:30:33;8.10;99.90
52555;DHT22;38455;52.710;6.502;2023-02-22T10:33:17;8.20;99.90
52555;DHT22;38455;52.710;6.502;2023-02-22T10:35:45;8.20;99.90
52555;DHT22;38455;52.710;6.502;2023-02-22T10:40:48;8.20;99.90
52555;DHT22;38455;52.710;6.502;2023-02-22T10:43:14;8.20;99.90
52555;DHT22;38455;52.710;6.502;2023-02-22T10:45:40;8.20;99.90
52555;DHT22;38455;52.710;6.502;2023-02-22T10:48:12;8.20;99.90
52555;DHT22;38455;52.710;6.502;2023-02-22T10:50:41;8.20;99.90
52555;DHT22;38455;52.710;6.502;2023-02-22T10:53:08;8.30;99.90
52555;DHT22;38455;52.710;6.502;2023-02-22T10:55:34;8.30;99.90
52555;DHT22;38455;52.710;6.502;2023-02-22T10:58:02;8.40;99.90
52555;DHT22;38455;52.710;6.502;2023-02-22T11:00:34;8.50;99.90
52555;DHT22;38455;52.710;6.502;2023-02-22T11:03:20;8.60;99.90
52555;DHT22;38455;52.710;6.502;2023-02-22T11:05:47;8.60;99.90
52555;DHT22;38455;52.710;6.502;2023-02-22T11:10:50;8.60;99.90
52555;DHT22;38455;52.710;6.502;2023-02-22T11:13:18;8.60;99.90
52555;DHT22;38455;52.710;6.502;2023-02-22T11:15:50;8.50;99.90
52555;DHT22;38455;52.710;6.502;2023-02-22T11:18:46;8.60;99.90
52555;DHT22;38455;52.710;6.502;2023-02-22T11:21:12;8.70;99.90
52555;DHT22;38455;52.710;6.502;2023-02-22T11:23:41;8.60;99.90
52555;DHT22;38455;52.710;6.502;2023-02-22T11:26:14;8.70;99.90
52555;DHT22;38455;52.710;6.502;2023-02-22T11:28:45;8.80;99.90
52555;DHT22;38455;52.710;6.502;2023-02-22T11:31:22;9.10;99.90
52555;DHT22;38455;52.710;6.502;2023-02-22T11:33:52;9.20;99.90
52555;DHT22;38455;52.710;6.502;2023-02-22T11:36:35;9.20;99.90
52555;DHT22;38455;52.710;6.502;2023-02-22T11:39:28;9.00;99.90
52555;DHT22;38455;52.710;6.502;2023-02-22T11:41:53;8.90;99.90
52555;DHT22;38455;52.710;6.502;2023-02-22T11:44:28;8.90;99.90
52555;DHT22;38455;52.710;6.502;2023-02-22T11:46:56;8.80;99.90
52555;DHT22;38455;52.710;6.502;2023-02-22T11:49:33;8.90;99.90
52555;DHT22;38455;52.710;6.502;2023-02-22T12:01:08;9.40;99.90
52555;DHT22;38455;52.710;6.502;2023-02-22T12:07:05;9.50;99.90
52555;DHT22;38455;52.710;6.502;2023-02-22T12:12:43;9.80;99.90
52555;DHT22;38455;52.710;6.502;2023-02-22T12:15:22;9.80;99.90
52555;DHT22;38455;52.710;6.502;2023-02-22T12:20:37;9.80;99.90
52555;DHT22;38455;52.710;6.502;2023-02-22T12:23:19;9.90;99.90
52555;DHT22;38455;52.710;6.502;2023-02-22T12:25:54;10.00;99.90
52555;DHT22;38455;52.710;6.502;2023-02-22T12:28:30;10.10;99.90
52555;DHT22;38455;52.710;6.502;2023-02-22T12:33:44;10.60;99.90
52555;DHT22;38455;52.710;6.502;2023-02-22T12:36:15;11.00;99.90
52555;DHT22;38455;52.710;6.502;2023-02-22T12:38:45;11.10;99.90
52555;DHT22;38455;52.710;6.502;2023-02-22T12:41:44;11.20;99.90
52555;DHT22;38455;52.710;6.502;2023-02-22T12:47:13;10.90;99.90
52555;DHT22;38455;52.710;6.502;2023-02-22T12:49:46;10.80;99.90
52555;DHT22;38455;52.710;6.502;2023-02-22T12:52:40;11.00;99.90
52555;DHT22;38455;52.710;6.502;2023-02-22T12:55:19;11.10;99.90
52555;DHT22;38455;52.710;6.502;2023-02-22T13:03:56;11.20;99.90
52555;DHT22;38455;52.710;6.502;2023-02-22T13:06:13;11.10;99.90
52555;DHT22;38455;52.710;6.502;2023-02-22T13:11:42;11.20;99.90
52555;DHT22;38455;52.710;6.502;2023-02-22T13:19:58;11.30;99.90
52555;DHT22;38455;52.710;6.502;2023-02-22T13:25:08;11.20;99.90
52555;DHT22;38455;52.710;6.502;2023-02-22T13:30:38;11.20;99.90
52555;DHT22;38455;52.710;6.502;2023-02-22T13:41:37;11.00;99.90
52555;DHT22;38455;52.710;6.502;2023-02-22T13:52:47;11.10;99.90
52555;DHT22;38455;52.710;6.502;2023-02-22T13:55:23;11.30;99.90
52555;DHT22;38455;52.710;6.502;2023-02-22T13:58:00;11.20;99.90
52555;DHT22;38455;52.710;6.502;2023-02-22T14:00:56;11.10;99.90
52555;DHT22;38455;52.710;6.502;2023-02-22T14:03:33;11.10;99.90
52555;DHT22;38455;52.710;6.502;2023-02-22T14:06:40;11.00;99.90
52555;DHT22;38455;52.710;6.502;2023-02-22T14:09:08;10.90;99.90
52555;DHT22;38455;52.710;6.502;2023-02-22T14:11:40;10.90;99.90
52555;DHT22;38455;52.710;6.502;2023-02-22T14:16:33;11.10;99.90
52555;DHT22;38455;52.710;6.502;2023-02-22T14:19:04;11.10;99.90
52555;DHT22;38455;52.710;6.502;2023-02-22T14:21:32;11.00;99.90
52555;DHT22;38455;52.710;6.502;2023-02-22T14:24:11;11.10;99.90
52555;DHT22;38455;52.710;6.502;2023-02-22T14:26:39;11.10;99.90
52555;DHT22;38455;52.710;6.502;2023-02-22T14:31:56;11.20;99.90
52555;DHT22;38455;52.710;6.502;2023-02-22T14:34:42;11.10;99.90
52555;DHT22;38455;52.710;6.502;2023-02-22T14:37:36;11.20;99.90
52555;DHT22;38455;52.710;6.502;2023-02-22T14:40:25;11.20;99.90
52555;DHT22;38455;52.710;6.502;2023-02-22T14:43:09;11.20;99.90
52555;DHT22;38455;52.710;6.502;2023-02-22T14:45:43;11.10;99.90
52555;DHT22;38455;52.710;6.502;2023-02-22T14:48:32;11.10;99.90
52555;DHT22;38455;52.710;6.502;2023-02-22T14:51:14;11.10;99.90
52555;DHT22;38455;52.710;6.502;2023-02-22T14:53:49;11.10;99.90
52555;DHT22;38455;52.710;6.502;2023-02-22T14:56:22;11.10;99.90
52555;DHT22;38455;52.710;6.502;2023-02-22T15:01:38;11.10;99.90
52555;DHT22;38455;52.710;6.502;2023-02-22T15:06:43;11.00;99.90
52555;DHT22;38455;52.710;6.502;2023-02-22T15:09:26;11.10;99.90
52555;DHT22;38455;52.710;6.502;2023-02-22T15:14:34;11.10;99.90
52555;DHT22;38455;52.710;6.502;2023-02-22T15:17:18;11.00;99.90
52555;DHT22;38455;52.710;6.502;2023-02-22T15:19:46;11.10;99.90
52555;DHT22;38455;52.710;6.502;2023-02-22T15:22:28;11.00;99.90
52555;DHT22;38455;52.710;6.502;2023-02-22T15:25:06;11.00;99.90
52555;DHT22;38455;52.710;6.502;2023-02-22T15:27:33;11.00;99.90
52555;DHT22;38455;52.710;6.502;2023-02-22T15:30:05;11.00;99.90
52555;DHT22;38455;52.710;6.502;2023-02-22T15:38:02;11.00;99.90
52555;DHT22;38455;52.710;6.502;2023-02-22T15:40:29;11.00;99.90
52555;DHT22;38455;52.710;6.502;2023-02-22T15:43:04;10.90;99.90
52555;DHT22;38455;52.710;6.502;2023-02-22T15:45:33;10.90;99.90
52555;DHT22;38455;52.710;6.502;2023-02-22T15:47:59;10.90;99.90
52555;DHT22;38455;52.710;6.502;2023-02-22T15:50:30;10.80;99.90
52555;DHT22;38455;52.710;6.502;2023-02-22T15:55:46;10.70;99.90
52555;DHT22;38455;52.710;6.502;2023-02-22T16:00:41;10.70;99.90
52555;DHT22;38455;52.710;6.502;2023-02-22T16:03:10;10.60;99.90
52555;DHT22;38455;52.710;6.502;2023-02-22T16:05:50;10.60;99.90
52555;DHT22;38455;52.710;6.502;2023-02-22T16:08:21;10.60;99.90
52555;DHT22;38455;52.710;6.502;2023-02-22T16:11:00;10.50;99.90
52555;DHT22;38455;52.710;6.502;2023-02-22T16:13:29;10.50;99.90
52555;DHT22;38455;52.710;6.502;2023-02-22T16:16:02;10.50;99.90
52555;DHT22;38455;52.710;6.502;2023-02-22T16:18:34;10.50;99.90
52555;DHT22;38455;52.710;6.502;2023-02-22T16:21:12;10.40;99.90
52555;DHT22;38455;52.710;6.502;2023-02-22T16:26:30;10.40;99.90
52555;DHT22;38455;52.710;6.502;2023-02-22T16:29:07;10.30;99.90
52555;DHT22;38455;52.710;6.502;2023-02-22T16:31:35;10.30;99.90
52555;DHT22;38455;52.710;6.502;2023-02-22T16:34:03;10.30;99.90
52555;DHT22;38455;52.710;6.502;2023-02-22T16:36:44;10.30;99.90
52555;DHT22;38455;52.710;6.502;2023-02-22T16:39:30;10.20;99.90
52555;DHT22;38455;52.710;6.502;2023-02-22T16:42:00;10.20;99.90
52555;DHT22;38455;52.710;6.502;2023-02-22T16:44:27;10.20;99.90
52555;DHT22;38455;52.710;6.502;2023-02-22T16:46:55;10.10;99.90
52555;DHT22;38455;52.710;6.502;2023-02-22T16:49:21;10.10;99.90
52555;DHT22;38455;52.710;6.502;2023-02-22T16:54:22;10.00;99.90
52555;DHT22;38455;52.710;6.502;2023-02-22T16:56:48;10.00;99.90
52555;DHT22;38455;52.710;6.502;2023-02-22T16:59:14;10.00;99.90
52555;DHT22;38455;52.710;6.502;2023-02-22T17:01:41;9.90;99.90
52555;DHT22;38455;52.710;6.502;2023-02-22T17:04:18;9.90;99.90
52555;DHT22;38455;52.710;6.502;2023-02-22T17:06:44;9.90;99.90
52555;DHT22;38455;52.710;6.502;2023-02-22T17:09:10;9.80;99.90
52555;DHT22;38455;52.710;6.502;2023-02-22T17:11:37;9.80;99.90
52555;DHT22;38455;52.710;6.502;2023-02-22T17:14:04;9.80;99.90
52555;DHT22;38455;52.710;6.502;2023-02-22T17:16:30;9.90;99.90
52555;DHT22;38455;52.710;6.502;2023-02-22T17:18:55;9.90;99.90
52555;DHT22;38455;52.710;6.502;2023-02-22T17:21:21;9.90;99.90
52555;DHT22;38455;52.710;6.502;2023-02-22T17:23:47;9.90;99.90
52555;DHT22;38455;52.710;6.502;2023-02-22T17:26:14;9.90;99.90
52555;DHT22;38455;52.710;6.502;2023-02-22T17:28:40;9.90;99.90
52555;DHT22;38455;52.710;6.502;2023-02-22T17:31:18;9.90;99.90
52555;DHT22;38455;52.710;6.502;2023-02-22T17:33:44;9.90;99.90
52555;DHT22;38455;52.710;6.502;2023-02-22T17:36:10;9.80;99.90
52555;DHT22;38455;52.710;6.502;2023-02-22T17:38:37;9.70;99.90
52555;DHT22;38455;52.710;6.502;2023-02-22T17:41:06;9.70;99.90
52555;DHT22;38455;52.710;6.502;2023-02-22T17:43:32;9.70;99.90
52555;DHT22;38455;52.710;6.502;2023-02-22T17:45:58;9.70;99.90
52555;DHT22;38455;52.710;6.502;2023-02-22T17:48:24;9.70;99.90
52555;DHT22;38455;52.710;6.502;2023-02-22T17:50:50;9.70;99.90
52555;DHT22;38455;52.710;6.502;2023-02-22T17:53:16;9.70;99.90
52555;DHT22;38455;52.710;6.502;2023-02-22T17:55:47;9.60;99.90
52555;DHT22;38455;52.710;6.502;2023-02-22T17:58:13;9.70;99.90
52555;DHT22;38455;52.710;6.502;2023-02-22T18:00:41;9.70;99.90
52555;DHT22;38455;52.710;6.502;2023-02-22T18:03:19;9.70;99.90
52555;DHT22;38455;52.710;6.502;2023-02-22T18:05:50;9.60;99.90
52555;DHT22;38455;52.710;6.502;2023-02-22T18:08:17;9.60;99.90
52555;DHT22;38455;52.710;6.502;2023-02-22T18:10:44;9.60;99.90
52555;DHT22;38455;52.710;6.502;2023-02-22T18:13:15;9.60;99.90
52555;DHT22;38455;52.710;6.502;2023-02-22T18:15:44;9.60;99.90
52555;DHT22;38455;52.710;6.502;2023-02-22T18:18:10;9.50;99.90
52555;DHT22;38455;52.710;6.502;2023-02-22T18:20:36;9.50;99.90
52555;DHT22;38455;52.710;6.502;2023-02-22T18:23:11;9.50;99.90
52555;DHT22;38455;52.710;6.502;2023-02-22T18:25:37;9.50;99.90
52555;DHT22;38455;52.710;6.502;2023-02-22T18:28:05;9.50;99.90
52555;DHT22;38455;52.710;6.502;2023-02-22T18:30:36;9.50;99.90